x

Buoy B01 - Western Maine Shelf (44030) Wave Buoy

10:04am - Wed 30th Jul 2014 All times are EDT. -4 hours from GMT.

  • Sig Wave height 3.0ft
  • Peak Period 8s
  • Wind
    7mph, 9mph gusts
  • Sea Temp 63°f
  • 空気 Temp 62°f
  • Sea Pressure 1015mb
  • Buoy B01 - Western Maine Shelf
  • Buoy B01 - Western Maine Shelf

More Historic Weather Station data

Upgrade to MSW Pro to gain access to the past 30 days of data for over 8000 Wavebouys and Weather Stations around the globe.

Join Pro

Comparision Forecast

View Surf forecast
   
Wed 07/30 10:04am 3ft 8s 7 9 mph 1015mb 63f 62f
9:04am 2.5ft 8s 9 11 mph 1014.9mb 63f 61f
8:04am 3.5ft 8s 9 11 mph 1014.8mb 63f 61f
7:04am 3ft 8s 9
mph
1014.6mb 63f 62f
6:04am 3ft 8s 9 11 mph 1014mb 63f 61f
5:04am 2.5ft 8s 9 11 mph 1013.5mb 62f 60f
4:04am 2.5ft 8s 7 9 mph 1012.9mb 62f 61f
3:04am 3ft 8s 2 4 mph 1012.9mb 62f 62f
2:04am 3ft 11s 2
mph
1012.9mb 62f 62f
1:04am 2.5ft 8s 2
mph
1012.7mb 62f 62f
12:04am 3ft 8s 2 4 mph 1012.4mb 63f 62f
Tue 07/29 11:04pm 3.5ft 8s 4
mph
1012.5mb 63f 62f
10:04pm 3.5ft 8s 4 7 mph 1012.3mb 63f 63f
9:04pm 3.5ft 8s 7 9 mph 1012mb 63f 64f
8:04pm 3.5ft 8s 7 9 mph 1011.6mb 63f 64f
7:04pm 3.5ft 8s 11
mph
1011.2mb 64f 65f
6:04pm 4ft 11s 11 13 mph 1010.4mb 64f 65f
5:04pm 3ft 8s 11 13 mph 1009.8mb 64f 65f
4:04pm 3.5ft 8s 11 16 mph 1009mb 64f 65f
3:04pm 3.5ft 8s 11 13 mph 1008.4mb 65f 65f
2:04pm 3.5ft 6s 7
mph
1007.8mb 64f 66f
1:04pm 3.5ft 8s 2 4 mph 1007.2mb 63f 67f
12:04pm 3.5ft 11s 4 7 mph 1006.9mb 62f 65f
11:04am 4ft 8s 7 9 mph 1006.6mb 62f 64f
10:04am 3.5ft 8s 13 18 mph 1006.1mb 62f 64f
9:04am 3.5ft 8s 11 16 mph 1005.6mb 61f 63f
8:04am 2.5ft 8s 9 13 mph 1004.5mb 61f 62f
7:04am 2.5ft 8s 11 13 mph 1003.8mb 61f 61f
6:04am 3ft 8s 11 13 mph 1002.8mb 61f 61f
5:04am 3ft 6s 9 11 mph 1001.9mb 61f 62f
4:04am 3.5ft 5s 13 16 mph 1000.2mb 61f 62f
3:04am 3.5ft 6s 13 16 mph 999.4mb 61f 62f
2:04am 3.5ft 8s 11 13 mph 998.8mb 61f 61f
1:04am 4ft 6s 11
mph
998.2mb 61f 61f
12:04am 3.5ft 6s 11 13 mph 998.1mb 61f 62f
Mon 07/28 11:04pm 3.5ft 6s 13 16 mph 997.8mb 61f 62f
10:04pm 3.5ft 8s 13 16 mph 997.4mb 61f 63f
9:04pm 3.5ft 6s 7 9 mph 997.4mb 61f 62f
8:04pm 3.5ft 6s 9 11 mph 997.2mb 62f 62f
7:04pm 3.5ft 6s 13 18 mph 996.5mb 62f 65f
6:04pm 3.5ft 5s 13 16 mph 996.2mb 62f 65f
5:04pm 3.5ft 5s 13 16 mph 996.4mb 62f 65f
4:04pm 3.5ft 5s 13 16 mph 997.1mb 62f 65f
3:04pm 3.5ft 5s 16 18 mph 997.5mb 62f 65f
2:04pm 3ft 6s 16 18 mph 997.8mb 62f 65f
1:04pm 3.5ft 4s 18 20 mph 998.5mb 63f 65f
12:04pm 3ft 6s 20 22 mph 999.5mb 63f 65f
11:04am 2.5ft 8s 16 18 mph 1000.2mb 63f 65f
10:04am 2.5ft 5s 13 18 mph 1001mb 64f 65f
9:04am 2.5ft 5s 11 13 mph 1001.6mb 63f 65f
8:04am 2.5ft 5s 7
mph
1002.5mb 63f 64f
7:04am 2.5ft 5s 7 9 mph 1002.5mb 63f 63f
6:04am 2.5ft 5s 2
mph
1002.8mb 63f 63f
5:04am 2.5ft 5s 7 9 mph 1003mb 63f 63f
12:04am 2.5ft 5s 11 13 mph 1003.6mb 62f 64f
Sun 07/27 11:04pm 2.5ft 5s 9
mph
1003.8mb 62f 64f
10:04pm 2.5ft 8s 11 13 mph 1004mb 62f 64f
9:04pm 3ft 5s 11 13 mph 1004.5mb 62f 64f
8:04pm 3.5ft 8s 13 16 mph 1003.9mb 63f 65f
7:04pm 3.5ft 5s 13 16 mph 1004.2mb 63f 65f
6:04pm 4.5ft 5s 18 20 mph 1003.9mb 63f 65f
5:04pm 4ft 5s 18 22 mph 1005mb 64f 65f
4:04pm 3ft 5s 20 22 mph 1005.4mb 64f 66f
3:04pm 2.5ft 4s 13 16 mph 1006mb 64f 65f
2:04pm 2.5ft 4s 18 20 mph 1005.8mb 65f 65f
1:04pm 2.5ft 4s 18 22 mph 1006.5mb 65f 66f
12:04pm 2.5ft 8s 13 18 mph 1006.7mb 66f 66f
11:04am 3ft 8s 13 16 mph 1007.3mb 66f 65f
10:04am 2.5ft 8s 11 13 mph 1007.9mb 66f 65f
9:04am 2.5ft 8s 11
mph
1008.8mb 66f 65f
8:04am 2ft 8s 11 13 mph 1008.9mb 65f 65f
Sat 07/26 11:04pm 3ft 5s 16 18 mph 1010.4mb 66f 68f
10:04pm 3ft 8s 16 18 mph 1010.4mb 66f 68f
9:04pm 2ft 5s 13 16 mph 1010.1mb 66f 68f
8:04pm 3ft 8s 9 11 mph 1009.7mb 66f 68f
7:04pm 3ft 4s 9 13 mph 1009.7mb 67f 69f
6:04pm 3ft 4s 13 18 mph 1009.7mb 67f 68f
5:04pm 2.5ft 8s 16 18 mph 1010mb 67f 68f